createdAt,value
2022-12-01T00:01:33.225Z,30.30
2022-12-01T00:04:00.243Z,33.28
2022-12-01T00:06:27.933Z,31.20
2022-12-01T00:09:19.731Z,29.95
2022-12-01T00:11:48.365Z,31.15
2022-12-01T00:14:16.463Z,32.53
2022-12-01T00:16:44.733Z,32.20
2022-12-01T00:19:11.738Z,32.55
2022-12-01T00:21:38.884Z,32.05
2022-12-01T00:24:07.416Z,31.20
2022-12-01T00:26:34.554Z,32.85
2022-12-01T00:29:01.375Z,32.80
2022-12-01T00:31:28.782Z,31.10
2022-12-01T00:33:56.167Z,31.77
2022-12-01T00:36:24.129Z,29.50
2022-12-01T00:39:01.055Z,29.38
2022-12-01T00:41:32.117Z,30.63
2022-12-01T00:43:58.889Z,29.50
2022-12-01T00:46:26.115Z,29.90
2022-12-01T00:48:53.050Z,32.35
2022-12-01T00:51:20.274Z,31.73
2022-12-01T00:53:47.673Z,31.17
2022-12-01T00:56:15.174Z,30.50
2022-12-01T00:58:42.817Z,28.75
2022-12-01T01:01:10.380Z,29.77
2022-12-01T01:03:40.641Z,30.55
2022-12-01T01:06:16.199Z,31.20
2022-12-01T01:08:47.337Z,30.08
2022-12-01T01:11:14.552Z,30.50
2022-12-01T01:13:41.393Z,30.17
2022-12-01T01:16:18.405Z,30.70
2022-12-01T01:18:47.384Z,31.00
2022-12-01T01:21:18.591Z,27.92
2022-12-01T01:23:46.002Z,29.63
2022-12-01T01:26:22.659Z,28.50
2022-12-01T01:28:51.460Z,29.58
2022-12-01T01:31:24.580Z,31.48
2022-12-01T01:33:53.985Z,29.85
2022-12-01T01:36:23.368Z,28.80
2022-12-01T01:38:54.456Z,30.38
2022-12-01T01:41:24.181Z,27.70
2022-12-01T01:44:02.950Z,30.70
2022-12-01T01:46:37.030Z,28.63
2022-12-01T01:49:19.613Z,29.65
2022-12-01T01:51:56.375Z,30.77
2022-12-01T01:54:34.110Z,30.67
2022-12-01T01:57:08.041Z,29.55
2022-12-01T01:59:50.732Z,29.73
2022-12-01T02:02:22.185Z,30.17
2022-12-01T02:05:01.399Z,27.98
2022-12-01T02:07:34.597Z,29.25
2022-12-01T02:10:01.912Z,26.73
2022-12-01T02:12:53.793Z,29.25
2022-12-01T02:16:20.684Z,29.15
2022-12-01T02:19:24.761Z,29.08
2022-12-01T02:22:48.208Z,28.70
2022-12-01T02:25:48.911Z,30.92
2022-12-01T02:28:53.182Z,29.45
2022-12-01T02:31:58.828Z,28.80
2022-12-01T02:34:51.699Z,28.48
2022-12-01T02:37:41.437Z,29.92
2022-12-01T02:41:10.470Z,28.38
2022-12-01T02:44:12.528Z,29.10
2022-12-01T02:47:14.619Z,28.00
2022-12-01T02:49:51.992Z,28.45
2022-12-01T02:52:29.029Z,28.50
2022-12-01T02:54:57.483Z,28.60
2022-12-01T02:57:25.253Z,30.38
2022-12-01T03:00:01.308Z,29.20
2022-12-01T03:02:42.893Z,29.05
2022-12-01T03:05:20.868Z,28.80
2022-12-01T03:08:13.930Z,27.80
2022-12-01T03:10:56.039Z,27.30
2022-12-01T03:13:56.748Z,28.67
2022-12-01T03:16:47.958Z,26.98
2022-12-01T03:19:37.873Z,26.75
2022-12-01T03:22:15.166Z,26.83
2022-12-01T03:24:48.441Z,27.23
2022-12-01T03:27:27.091Z,26.15
2022-12-01T03:30:01.742Z,26.10
2022-12-01T03:32:47.473Z,26.58
2022-12-01T03:35:51.770Z,25.45
2022-12-01T03:38:30.903Z,23.75
2022-12-01T03:41:10.588Z,27.20
2022-12-01T03:43:52.206Z,26.48
2022-12-01T03:47:03.471Z,26.42
2022-12-01T03:49:36.407Z,24.52
2022-12-01T03:52:52.337Z,24.23
2022-12-01T03:55:31.606Z,25.85
2022-12-01T03:58:41.091Z,24.83
2022-12-01T04:01:13.347Z,25.77
2022-12-01T04:03:45.423Z,23.80
2022-12-01T04:06:12.585Z,24.67
2022-12-01T04:08:39.890Z,24.55
2022-12-01T04:11:32.372Z,24.55
2022-12-01T04:13:59.959Z,24.02
2022-12-01T04:16:27.247Z,25.58
2022-12-01T04:18:54.145Z,25.80
2022-12-01T04:21:21.284Z,25.52
2022-12-01T04:24:00.873Z,28.52
2022-12-01T04:26:45.603Z,26.55
2022-12-01T04:29:21.816Z,25.70
2022-12-01T04:31:49.071Z,27.38
2022-12-01T04:34:16.015Z,27.77
2022-12-01T04:36:43.231Z,26.38
2022-12-01T04:39:10.589Z,27.58
2022-12-01T04:41:37.971Z,27.60
2022-12-01T04:44:05.645Z,27.45
2022-12-01T04:46:33.124Z,27.02
2022-12-01T04:49:00.532Z,26.25
2022-12-01T04:51:31.604Z,23.65
2022-12-01T04:53:59.358Z,25.75
2022-12-01T04:56:36.598Z,25.90
2022-12-01T04:59:03.805Z,24.88
2022-12-01T05:01:30.987Z,25.77
2022-12-01T05:03:58.124Z,24.20
2022-12-01T05:06:29.863Z,25.08
2022-12-01T05:12:35.486Z,27.08
2022-12-01T05:15:03.049Z,25.80
2022-12-01T05:17:36.745Z,26.58
2022-12-01T05:20:44.539Z,22.15
2022-12-01T05:23:16.981Z,23.98
2022-12-01T05:25:54.435Z,22.40
2022-12-01T05:28:24.933Z,22.90
2022-12-01T05:31:03.411Z,23.00
2022-12-01T05:33:32.212Z,25.45
2022-12-01T05:36:08.912Z,23.02
2022-12-01T05:38:36.065Z,23.90
2022-12-01T05:41:03.407Z,23.00
2022-12-01T05:43:30.736Z,22.88
2022-12-01T05:45:58.747Z,21.20
2022-12-01T05:48:26.034Z,23.15
2022-12-01T05:50:53.063Z,23.83
2022-12-01T05:53:20.865Z,24.40
2022-12-01T05:56:02.675Z,25.52
2022-12-01T05:58:29.793Z,22.80
2022-12-01T06:00:56.951Z,22.75
2022-12-01T06:03:59.587Z,22.75
2022-12-01T06:06:29.891Z,21.75
2022-12-01T06:08:56.969Z,23.05
2022-12-01T06:11:23.902Z,23.00
2022-12-01T06:13:51.024Z,24.38
2022-12-01T06:16:17.936Z,23.50
2022-12-01T06:18:45.305Z,25.60
2022-12-01T06:21:12.615Z,22.50
2022-12-01T06:23:39.970Z,26.17
2022-12-01T06:26:07.532Z,24.05
2022-12-01T06:28:37.664Z,25.95
2022-12-01T06:31:04.676Z,23.48
2022-12-01T06:33:32.354Z,23.73
2022-12-01T06:36:01.448Z,24.58
2022-12-01T06:38:38.660Z,22.33
2022-12-01T06:41:06.275Z,23.15
2022-12-01T06:43:38.807Z,24.73
2022-12-01T06:46:12.972Z,24.25
2022-12-01T06:48:40.419Z,23.85
2022-12-01T06:51:07.332Z,23.23
2022-12-01T06:53:34.743Z,22.48
2022-12-01T06:56:06.184Z,23.75
2022-12-01T06:58:42.556Z,21.92
2022-12-01T07:01:13.042Z,21.73
2022-12-01T07:03:40.954Z,22.42
2022-12-01T07:06:09.451Z,22.27
2022-12-01T07:08:37.737Z,23.25
2022-12-01T07:11:16.343Z,21.98
2022-12-01T07:13:52.135Z,21.98
2022-12-01T07:19:28.922Z,20.90
2022-12-01T07:21:55.772Z,22.40
2022-12-01T07:24:23.281Z,20.73
2022-12-01T07:26:50.656Z,22.75
2022-12-01T07:29:18.608Z,23.38
2022-12-01T07:31:45.451Z,22.88
2022-12-01T07:34:15.782Z,22.85
2022-12-01T07:36:42.611Z,22.70
2022-12-01T07:39:09.788Z,21.85
2022-12-01T07:41:36.936Z,23.23
2022-12-01T07:44:04.739Z,22.52
2022-12-01T07:46:32.378Z,22.67
2022-12-01T07:49:00.398Z,23.92
2022-12-01T07:51:29.115Z,22.48
2022-12-01T07:54:05.543Z,22.25
2022-12-01T07:56:35.651Z,22.73
2022-12-01T07:59:03.326Z,23.92
2022-12-01T08:02:06.714Z,23.90
2022-12-01T08:04:46.357Z,21.77
2022-12-01T08:07:13.200Z,22.77
2022-12-01T08:09:51.927Z,22.65
2022-12-01T08:12:52.401Z,23.52
2022-12-01T08:15:39.130Z,22.98
2022-12-01T08:18:06.050Z,24.10
2022-12-01T08:20:58.806Z,22.08
2022-12-01T08:26:55.719Z,23.40
2022-12-01T08:29:57.773Z,22.05
2022-12-01T08:32:24.968Z,23.45
2022-12-01T08:34:53.503Z,22.30
2022-12-01T08:37:21.195Z,24.52
2022-12-01T08:39:48.190Z,23.67
2022-12-01T08:42:29.554Z,21.55
2022-12-01T08:44:56.566Z,21.10
2022-12-01T08:47:23.707Z,22.23
2022-12-01T08:49:50.982Z,23.90
2022-12-01T08:52:18.501Z,24.02
2022-12-01T08:55:32.418Z,23.30
2022-12-01T08:58:00.729Z,23.15
2022-12-01T09:00:27.901Z,22.13
2022-12-01T09:02:55.440Z,23.83
2022-12-01T09:05:59.361Z,23.90
2022-12-01T09:08:35.454Z,23.38
2022-12-01T09:14:10.068Z,22.70
2022-12-01T09:16:40.856Z,23.65
2022-12-01T09:19:08.754Z,23.45
2022-12-01T09:22:00.772Z,22.83
2022-12-01T09:24:49.773Z,20.42
2022-12-01T09:27:20.468Z,20.80
2022-12-01T09:29:47.552Z,20.05
2022-12-01T09:32:15.021Z,19.90
2022-12-01T09:35:23.243Z,19.83
2022-12-01T09:37:58.894Z,21.05
2022-12-01T09:40:57.420Z,20.23
2022-12-01T09:43:46.386Z,19.02
2022-12-01T09:46:34.009Z,19.45
2022-12-01T09:49:13.311Z,19.15
2022-12-01T09:52:20.189Z,19.40
2022-12-01T09:54:50.149Z,18.92
2022-12-01T09:57:40.449Z,17.95
2022-12-01T10:01:16.377Z,21.02
2022-12-01T10:04:38.795Z,18.45
2022-12-01T10:07:16.496Z,19.92
2022-12-01T10:09:55.303Z,19.73
2022-12-01T10:12:36.682Z,20.02
2022-12-01T10:15:37.576Z,19.10
2022-12-01T10:18:32.202Z,19.60
2022-12-01T10:21:11.362Z,22.73
2022-12-01T10:24:28.798Z,20.13
2022-12-01T10:27:44.234Z,21.40
2022-12-01T10:30:23.824Z,21.57
2022-12-01T10:33:30.429Z,20.88
2022-12-01T10:35:58.160Z,20.45
2022-12-01T10:38:36.903Z,20.33
2022-12-01T10:41:15.062Z,22.75
2022-12-01T10:43:54.113Z,21.42
2022-12-01T10:46:46.853Z,20.58
2022-12-01T10:49:20.365Z,21.88
2022-12-01T10:51:57.816Z,22.15
2022-12-01T10:54:45.025Z,21.92
2022-12-01T10:57:17.782Z,23.45
2022-12-01T10:59:58.133Z,21.83
2022-12-01T11:02:39.885Z,22.90
2022-12-01T11:05:25.803Z,22.85
2022-12-01T11:07:54.347Z,22.73
2022-12-01T11:10:37.046Z,23.85
2022-12-01T11:13:29.431Z,25.50
2022-12-01T11:17:00.272Z,23.08
2022-12-01T11:19:36.269Z,23.85
2022-12-01T11:22:29.159Z,24.25
2022-12-01T11:25:21.907Z,22.75
2022-12-01T11:28:01.940Z,23.13
2022-12-01T11:31:03.634Z,22.92
2022-12-01T11:33:45.229Z,23.40
2022-12-01T11:37:16.069Z,24.02
2022-12-01T11:41:24.680Z,23.02
2022-12-01T11:44:06.225Z,28.00
2022-12-01T11:47:23.358Z,23.35
2022-12-01T11:50:25.999Z,25.83
2022-12-01T11:54:31.148Z,22.90
2022-12-01T11:57:33.753Z,23.08
2022-12-01T12:00:17.420Z,22.85
2022-12-01T12:03:19.614Z,24.52
2022-12-01T12:06:32.284Z,23.27
2022-12-01T12:09:24.615Z,23.17
2022-12-01T12:12:13.489Z,22.25
2022-12-01T12:15:42.876Z,24.20
2022-12-01T12:18:43.260Z,24.45
2022-12-01T12:21:37.496Z,25.42
2022-12-01T12:24:36.951Z,23.23
2022-12-01T12:27:27.080Z,23.48
2022-12-01T12:30:24.858Z,22.95
2022-12-01T12:33:46.681Z,24.27
2022-12-01T12:36:51.869Z,22.95
2022-12-01T12:39:31.651Z,22.65
2022-12-01T12:41:58.895Z,22.05
2022-12-01T12:44:50.331Z,25.17
2022-12-01T12:47:51.276Z,22.98
2022-12-01T12:50:36.835Z,23.70
2022-12-01T12:53:21.924Z,24.30
2022-12-01T12:58:58.355Z,22.75
2022-12-01T13:01:37.627Z,24.83
2022-12-01T13:04:26.233Z,25.83
2022-12-01T13:07:07.965Z,25.48
2022-12-01T13:09:47.825Z,25.05
2022-12-01T13:12:29.413Z,24.52
2022-12-01T13:15:18.538Z,26.40
2022-12-01T13:17:54.897Z,25.35
2022-12-01T13:20:28.867Z,25.45
2022-12-01T13:23:01.497Z,26.10
2022-12-01T13:25:41.130Z,22.98
2022-12-01T13:28:25.504Z,25.23
2022-12-01T13:31:20.766Z,27.92
2022-12-01T13:33:56.867Z,26.13
2022-12-01T13:39:27.044Z,25.88
2022-12-01T13:42:04.898Z,25.95
2022-12-01T13:44:42.464Z,26.25
2022-12-01T13:47:14.028Z,24.42
2022-12-01T13:49:45.445Z,27.60
2022-12-01T13:52:28.385Z,27.88
2022-12-01T13:55:07.540Z,28.58
2022-12-01T13:57:58.048Z,26.30
2022-12-01T14:00:35.320Z,27.38
2022-12-01T14:03:39.279Z,27.20
2022-12-01T14:06:21.274Z,28.95
2022-12-01T14:08:54.978Z,27.95
2022-12-01T14:11:28.831Z,27.95
2022-12-01T14:14:12.544Z,27.05
2022-12-01T14:17:03.484Z,26.33
2022-12-01T14:19:53.110Z,25.38
2022-12-01T14:22:39.435Z,26.83
2022-12-01T14:25:36.270Z,27.00
2022-12-01T14:28:15.592Z,29.17
2022-12-01T14:30:45.951Z,29.52
2022-12-01T14:34:18.922Z,28.13
2022-12-01T14:37:30.379Z,27.75
2022-12-01T14:40:36.272Z,29.08
2022-12-01T14:43:38.594Z,29.42
2022-12-01T14:46:18.631Z,29.77
2022-12-01T14:49:00.266Z,30.55
2022-12-01T14:51:50.400Z,30.23
2022-12-01T14:54:35.248Z,31.20
2022-12-01T14:57:22.785Z,30.42
2022-12-01T15:00:19.442Z,32.15
2022-12-01T15:03:09.528Z,32.53
2022-12-01T15:05:48.360Z,33.78
2022-12-01T15:08:41.935Z,30.88
2022-12-01T15:13:58.361Z,31.35
2022-12-01T15:16:31.181Z,30.00
2022-12-01T15:19:32.532Z,29.48
2022-12-01T15:22:11.513Z,31.30
2022-12-01T15:24:39.535Z,31.65
2022-12-01T15:27:39.171Z,28.38
2022-12-01T15:30:16.803Z,29.73
2022-12-01T15:32:49.882Z,33.65
2022-12-01T15:35:23.775Z,30.90
2022-12-01T15:38:09.218Z,29.02
2022-12-01T15:41:20.720Z,29.75
2022-12-01T15:43:41.397Z,29.60
2022-12-01T15:46:35.329Z,29.83
2022-12-01T15:49:33.887Z,30.15
2022-12-01T15:52:10.890Z,30.15
2022-12-01T15:54:40.626Z,30.60
2022-12-01T15:57:25.781Z,31.33
2022-12-01T15:59:57.976Z,31.05
2022-12-01T16:02:34.519Z,30.98
2022-12-01T16:05:36.801Z,31.20
2022-12-01T16:08:30.785Z,31.75
2022-12-01T16:11:37.521Z,27.75
2022-12-01T16:14:27.637Z,31.25
2022-12-01T16:16:55.243Z,29.08
2022-12-01T16:19:33.425Z,26.92
2022-12-01T16:22:12.386Z,30.48
2022-12-01T16:25:04.067Z,31.27
2022-12-01T16:27:33.600Z,30.00
2022-12-01T16:30:14.179Z,31.33
2022-12-01T16:32:44.172Z,30.08
2022-12-01T16:35:21.480Z,31.42
2022-12-01T16:37:48.824Z,30.58
2022-12-01T16:40:16.924Z,30.25
2022-12-01T16:42:44.416Z,32.00
2022-12-01T16:45:15.313Z,32.50
2022-12-01T16:47:47.041Z,32.78
2022-12-01T16:50:17.717Z,33.45
2022-12-01T16:52:45.732Z,31.92
2022-12-01T16:55:22.562Z,32.67
2022-12-01T16:57:53.011Z,32.33
2022-12-01T17:00:21.976Z,35.30
2022-12-01T17:02:48.893Z,31.77
2022-12-01T17:05:16.810Z,35.30
2022-12-01T17:07:43.925Z,37.08
2022-12-01T17:10:12.257Z,32.90
2022-12-01T17:12:39.821Z,31.75
2022-12-01T17:15:07.741Z,32.28
2022-12-01T17:17:34.975Z,32.45
2022-12-01T17:20:05.557Z,33.75
2022-12-01T17:22:37.142Z,31.73
2022-12-01T17:25:07.081Z,33.97
2022-12-01T17:27:34.217Z,31.48
2022-12-01T17:30:04.376Z,30.90
2022-12-01T17:32:32.292Z,30.75
2022-12-01T17:35:00.152Z,30.00
2022-12-01T17:37:30.570Z,33.03
2022-12-01T17:40:00.085Z,31.55
2022-12-01T17:42:32.254Z,30.48
2022-12-01T17:45:00.057Z,32.13
2022-12-01T17:47:27.392Z,33.53
2022-12-01T17:49:54.719Z,33.20
2022-12-01T17:52:26.662Z,31.75
2022-12-01T17:55:00.592Z,32.17
2022-12-01T17:57:28.748Z,32.25
2022-12-01T17:59:56.372Z,33.85
2022-12-01T18:02:23.482Z,32.58
2022-12-01T18:04:51.555Z,33.53
2022-12-01T18:07:20.117Z,37.33
2022-12-01T18:09:47.310Z,33.42
2022-12-01T18:12:14.142Z,33.38
2022-12-01T18:14:41.530Z,32.72
2022-12-01T18:17:08.894Z,30.92
2022-12-01T18:19:36.630Z,35.45
2022-12-01T18:22:06.044Z,32.08
2022-12-01T18:24:33.301Z,32.95
2022-12-01T18:27:00.254Z,35.63
2022-12-01T18:29:28.766Z,35.05
2022-12-01T18:31:57.748Z,33.63
2022-12-01T18:34:32.982Z,32.85
2022-12-01T18:37:02.895Z,31.65
2022-12-01T18:39:30.137Z,31.90
2022-12-01T18:41:58.250Z,30.90
2022-12-01T18:44:25.931Z,29.42
2022-12-01T18:46:53.160Z,31.83
2022-12-01T18:49:20.505Z,30.67
2022-12-01T18:51:47.515Z,30.30
2022-12-01T18:54:15.911Z,30.02
2022-12-01T18:56:43.263Z,30.75
2022-12-01T18:59:13.791Z,30.98
2022-12-01T19:01:49.151Z,30.67
2022-12-01T19:04:17.371Z,30.98
2022-12-01T19:06:46.616Z,30.55
2022-12-01T19:09:20.149Z,29.88
2022-12-01T19:12:03.615Z,30.67
2022-12-01T19:14:31.563Z,31.10
2022-12-01T19:17:00.816Z,29.92
2022-12-01T19:19:29.952Z,31.33
2022-12-01T19:22:00.753Z,30.65
2022-12-01T19:24:37.012Z,31.45
2022-12-01T19:29:43.536Z,30.45
2022-12-01T19:32:11.002Z,32.47
2022-12-01T19:34:38.202Z,30.33
2022-12-01T19:37:05.031Z,28.75
2022-12-01T19:39:32.450Z,31.50
2022-12-01T19:41:59.322Z,31.50
2022-12-01T19:44:26.699Z,32.28
2022-12-01T19:46:54.713Z,31.35
2022-12-01T19:49:21.861Z,31.60
2022-12-01T19:51:49.226Z,32.45
2022-12-01T19:54:19.753Z,31.65
2022-12-01T19:56:46.812Z,31.63
2022-12-01T19:59:15.272Z,30.67
2022-12-01T20:01:50.466Z,31.40
2022-12-01T20:04:18.848Z,35.95
2022-12-01T20:06:46.150Z,33.20
2022-12-01T20:09:14.412Z,31.80
2022-12-01T20:11:41.507Z,29.77
2022-12-01T20:14:10.031Z,31.65
2022-12-01T20:16:36.919Z,31.08
2022-12-01T20:19:05.811Z,33.08
2022-12-01T20:21:43.541Z,31.38
2022-12-01T20:24:22.022Z,30.45
2022-12-01T20:26:53.847Z,30.67
2022-12-01T20:29:29.115Z,32.35
2022-12-01T20:32:01.165Z,30.33
2022-12-01T20:34:38.084Z,33.85
2022-12-01T20:37:07.975Z,32.08
2022-12-01T20:39:37.963Z,33.50
2022-12-01T20:42:07.724Z,32.80
2022-12-01T20:44:39.228Z,32.22
2022-12-01T20:47:08.757Z,31.98
2022-12-01T20:49:36.914Z,30.73
2022-12-01T20:52:04.695Z,33.30
2022-12-01T20:54:32.472Z,29.48
2022-12-01T20:57:00.387Z,32.95
2022-12-01T20:59:28.997Z,31.38
2022-12-01T21:01:56.758Z,32.75
2022-12-01T21:04:25.093Z,32.05
2022-12-01T21:07:01.401Z,32.92
2022-12-01T21:09:28.882Z,34.10
2022-12-01T21:12:35.199Z,30.63
2022-12-01T21:15:24.973Z,33.67
2022-12-01T21:18:22.842Z,32.70
2022-12-01T21:23:38.554Z,32.03
2022-12-01T21:26:16.640Z,31.33
2022-12-01T21:28:45.038Z,31.77
2022-12-01T21:31:15.234Z,32.55
2022-12-01T21:33:46.916Z,33.58
2022-12-01T21:36:23.207Z,30.60
2022-12-01T21:39:00.477Z,34.20
2022-12-01T21:41:30.289Z,34.20
2022-12-01T21:44:17.873Z,33.90
2022-12-01T21:46:46.339Z,34.47
2022-12-01T21:49:22.666Z,33.58
2022-12-01T21:51:55.303Z,32.25
2022-12-01T21:54:23.489Z,32.08
2022-12-01T21:57:00.860Z,31.50
2022-12-01T21:59:28.112Z,33.17
2022-12-01T22:01:57.504Z,33.40
2022-12-01T22:04:37.574Z,33.80
2022-12-01T22:07:05.270Z,32.22
2022-12-01T22:09:36.842Z,33.65
2022-12-01T22:12:10.790Z,34.38
2022-12-01T22:14:38.006Z,32.50
2022-12-01T22:17:09.362Z,33.33
2022-12-01T22:19:46.473Z,31.23
2022-12-01T22:22:22.780Z,31.00
2022-12-01T22:25:04.853Z,30.75
2022-12-01T22:27:42.681Z,29.48
2022-12-01T22:30:25.117Z,31.13
2022-12-01T22:33:39.890Z,31.77
2022-12-01T22:36:33.519Z,30.02
2022-12-01T22:39:01.528Z,30.35
2022-12-01T22:41:29.455Z,28.38
2022-12-01T22:44:03.519Z,29.83
2022-12-01T22:46:46.661Z,30.60
2022-12-01T22:49:26.150Z,31.25
2022-12-01T22:52:30.877Z,33.83
2022-12-01T22:55:00.457Z,31.92
2022-12-01T22:57:37.831Z,31.13
2022-12-01T23:00:21.684Z,31.25
2022-12-01T23:03:00.025Z,29.45
2022-12-01T23:05:41.049Z,30.25
2022-12-01T23:08:32.610Z,31.75
2022-12-01T23:10:59.754Z,30.80
2022-12-01T23:13:26.639Z,31.02
2022-12-01T23:15:54.287Z,30.77
2022-12-01T23:18:32.533Z,30.48
2022-12-01T23:21:01.772Z,30.27
2022-12-01T23:23:40.492Z,32.80
2022-12-01T23:26:09.007Z,30.27
2022-12-01T23:28:44.609Z,31.70
2022-12-01T23:31:13.856Z,31.75
2022-12-01T23:33:41.394Z,30.65
2022-12-01T23:36:28.913Z,30.52
2022-12-01T23:39:08.352Z,28.00
2022-12-01T23:41:48.633Z,30.27
2022-12-01T23:44:42.771Z,30.77
2022-12-01T23:47:27.814Z,31.73
2022-12-01T23:50:06.818Z,28.07
2022-12-01T23:52:36.994Z,28.95
2022-12-01T23:55:29.140Z,29.10
2022-12-01T23:58:17.950Z,33.17
